Time;durP1;ratioP1;P1;durP2;ratioP2;P2;SDS_P1;SDS_P2;PMS_P1;PMS_P2;Temp;Humidity;BMP_temperature;BMP_pressure;BME280_temperature;BME280_humidity;BME280_pressure;Samples;Min_cycle;Max_cycle;Signal;HPM_P1;HPM_P2
2022/10/18 00:01:47;;;;;;;;;;;;;;;10.66;96.16;101220.06;4450226;32;35845;-81
2022/10/18 00:04:35;;;;;;;;;;;;;;;10.90;95.97;101225.00;4442413;32;35220;-81
2022/10/18 00:07:21;;;;;;;;;;;;;;;10.67;97.28;101224.47;4449611;32;35855;-80
2022/10/18 00:10:08;;;;;;;;;;;;;;;10.90;96.24;101220.34;4450515;32;33651;-80
2022/10/18 00:12:54;;;;;;;;;;;;;;;10.80;96.35;101225.81;4459936;32;35120;-80
2022/10/18 00:15:50;;;;;;;;;;;;;;;11.09;94.73;101215.09;4452827;32;36199;-81
2022/10/18 00:18:37;;;;;;;;;;;;;;;11.25;93.22;101208.50;4443911;32;34942;-81
2022/10/18 00:21:23;;;;;;;;;;;;;;;11.40;90.67;101217.81;4451235;32;34110;-81
2022/10/18 00:24:09;;;;;;;;;;;;;;;10.78;92.31;101206.87;4433051;32;35828;-80
2022/10/18 00:26:56;;;;;;;;;;;;;;;11.13;91.44;101213.47;4459497;32;35349;-81
2022/10/18 00:29:42;;;;;;;;;;;;;;;10.95;92.83;101208.53;4453685;32;36182;-81
2022/10/18 00:32:28;;;;;;;;;;;;;;;10.97;92.52;101214.56;4442585;32;35988;-80
2022/10/18 00:35:14;;;;;;;;;;;;;;;11.05;91.68;101205.81;4453535;32;34444;-81
2022/10/18 00:38:02;;;;;;;;;;;;;;;10.95;92.76;101195.66;4453414;32;36220;-80
2022/10/18 00:40:48;;;;;;;;;;;;;;;11.02;92.73;101200.88;4463962;32;35785;-80
2022/10/18 00:43:53;;;;;;;;;;;;;;;10.97;93.26;101206.34;4456043;32;34976;-80
2022/10/18 00:46:41;;;;;;;;;;;;;;;10.96;93.15;101204.72;4462683;32;34009;-80
2022/10/18 00:49:31;;;;;;;;;;;;;;;10.96;93.40;101204.72;4452760;32;35036;-80
2022/10/18 00:52:22;;;;;;;;;;;;;;;11.03;92.42;101203.31;4452458;32;34950;-81
2022/10/18 00:55:10;;;;;;;;;;;;;;;11.02;92.35;101206.34;4459082;32;33742;-80
2022/10/18 00:57:57;;;;;;;;;;;;;;;10.98;93.28;101197.84;4444438;32;35377;-81
2022/10/18 01:00:45;;;;;;;;;;;;;;;10.91;93.65;101188.25;4448616;32;35121;-80
2022/10/18 01:03:31;;;;;;;;;;;;;;;10.59;94.72;101183.88;4450052;32;35710;-81
2022/10/18 01:06:19;;;;;;;;;;;;;;;10.11;97.70;101189.53;4449730;32;34790;-80
2022/10/18 01:09:23;;;;;;;;;;;;;;;10.22;97.74;101187.62;4401572;32;1311797;-81
2022/10/18 01:12:09;;;;;;;;;;;;;;;10.37;96.73;101186.88;4462631;32;35317;-80
2022/10/18 01:15:01;;;;;;;;;;;;;;;10.65;95.68;101173.75;4461500;32;35665;-80
2022/10/18 01:18:09;;;;;;;;;;;;;;;10.58;95.93;101177.56;4452658;32;35001;-80
2022/10/18 01:21:14;;;;;;;;;;;;;;;10.69;95.28;101169.34;4452886;32;34348;-81
2022/10/18 01:24:12;;;;;;;;;;;;;;;10.97;93.15;101165.22;4460007;32;36193;-80
2022/10/18 01:27:04;;;;;;;;;;;;;;;10.86;93.61;101164.41;4438977;32;35081;-81
2022/10/18 01:30:02;;;;;;;;;;;;;;;10.97;92.53;101165.22;4438082;32;34897;-81
2022/10/18 01:32:53;;;;;;;;;;;;;;;11.17;89.90;101167.91;4438037;32;34940;-80
2022/10/18 01:35:40;;;;;;;;;;;;;;;10.53;92.74;101157.53;4448517;32;35325;-80
2022/10/18 01:38:28;;;;;;;;;;;;;;;10.60;91.80;101154.53;4463938;32;34417;-80
2022/10/18 01:41:15;;;;;;;;;;;;;;;10.72;91.49;101160.56;4448784;32;35472;-80
2022/10/18 01:44:01;;;;;;;;;;;;;;;10.26;95.59;101147.62;4450553;32;35765;-80
2022/10/18 01:46:47;;;;;;;;;;;;;;;9.75;96.89;101147.50;4440506;32;35736;-80
2022/10/18 01:49:34;;;;;;;;;;;;;;;10.19;94.81;101146.25;4439414;32;35425;-80
2022/10/18 01:52:21;;;;;;;;;;;;;;;10.55;92.70;101144.41;4438174;32;34159;-80
2022/10/18 01:55:09;;;;;;;;;;;;;;;10.50;92.51;101141.66;4446385;32;34973;-80
2022/10/18 01:57:58;;;;;;;;;;;;;;;10.24;92.05;101138.03;4434595;32;35673;-80
2022/10/18 02:00:44;;;;;;;;;;;;;;;10.17;93.09;101132.84;4442594;32;35484;-80
2022/10/18 02:03:30;;;;;;;;;;;;;;;10.48;92.40;101141.13;4445916;32;34920;-80
2022/10/18 02:06:21;;;;;;;;;;;;;;;9.98;96.03;101135.25;4442802;32;35809;-80
2022/10/18 02:09:34;;;;;;;;;;;;;;;9.91;95.80;101123.75;4451687;32;34131;-80
2022/10/18 02:12:20;;;;;;;;;;;;;;;9.70;97.02;101122.84;4464601;32;35598;-80
2022/10/18 02:15:09;;;;;;;;;;;;;;;10.03;95.51;101116.09;4442780;32;34033;-80
2022/10/18 02:17:56;;;;;;;;;;;;;;;9.69;98.38;101121.22;4458092;32;34519;-80
2022/10/18 02:20:43;;;;;;;;;;;;;;;9.49;98.53;101123.88;4452156;32;35244;-80
2022/10/18 02:23:29;;;;;;;;;;;;;;;10.14;96.02;101127.91;4440513;32;35669;-80
2022/10/18 02:26:15;;;;;;;;;;;;;;;9.29;100.00;101124.63;4457227;32;34758;-80
2022/10/18 02:29:01;;;;;;;;;;;;;;;9.34;100.00;101125.47;4444179;32;34974;-80
2022/10/18 02:31:47;;;;;;;;;;;;;;;9.88;97.48;101133.31;4453791;32;35908;-80
2022/10/18 02:34:35;;;;;;;;;;;;;;;9.76;97.07;101121.81;4439143;32;34864;-80
2022/10/18 02:37:22;;;;;;;;;;;;;;;9.50;97.92;101123.59;4439950;32;33686;-80
2022/10/18 02:40:09;;;;;;;;;;;;;;;8.75;100.00;101128.37;4440816;32;34530;-81
2022/10/18 02:42:57;;;;;;;;;;;;;;;9.48;99.88;101130.44;4454056;32;35242;-80
2022/10/18 02:45:43;;;;;;;;;;;;;;;9.31;99.67;101127.91;4453215;32;35305;-80
2022/10/18 02:48:30;;;;;;;;;;;;;;;9.83;97.53;101136.03;4461175;32;34693;-80
2022/10/18 02:51:16;;;;;;;;;;;;;;;9.76;96.75;101129.16;4439640;32;34520;-80
2022/10/18 02:54:03;;;;;;;;;;;;;;;9.21;99.43;101128.66;4455830;32;34868;-80
2022/10/18 02:56:51;;;;;;;;;;;;;;;9.43;97.11;101126.59;4461253;32;34819;-80
2022/10/18 02:59:37;;;;;;;;;;;;;;;9.85;96.06;101133.88;4454234;32;33626;-80
2022/10/18 03:02:24;;;;;;;;;;;;;;;9.06;98.96;101134.06;4451879;32;34944;-80
2022/10/18 03:05:11;;;;;;;;;;;;;;;9.52;97.87;101126.91;4439105;32;35340;-80
2022/10/18 03:07:57;;;;;;;;;;;;;;;9.33;97.05;101128.44;4448745;32;34935;-80
2022/10/18 03:10:43;;;;;;;;;;;;;;;9.49;97.98;101126.62;4443105;32;34108;-80
2022/10/18 03:13:29;;;;;;;;;;;;;;;9.30;97.88;101134.47;4440318;32;34411;-80
2022/10/18 03:16:16;;;;;;;;;;;;;;;9.57;97.37;101139.78;4436966;32;35219;-79
2022/10/18 03:19:03;;;;;;;;;;;;;;;9.16;99.25;101145.03;4450051;32;35836;-80
2022/10/18 03:21:49;;;;;;;;;;;;;;;9.78;95.83;101138.75;4450075;32;35158;-80
2022/10/18 03:24:35;;;;;;;;;;;;;;;9.89;93.79;101142.34;4448296;32;34527;-80
2022/10/18 03:27:21;;;;;;;;;;;;;;;9.41;95.15;101139.72;4418542;32;35328;-80
2022/10/18 03:30:10;;;;;;;;;;;;;;;9.72;94.83;101148.06;4448264;32;35752;-80
2022/10/18 03:32:58;;;;;;;;;;;;;;;9.73;94.44;101144.22;4449263;32;34132;-80
2022/10/18 03:35:45;;;;;;;;;;;;;;;9.62;94.84;101137.06;4450212;32;34468;-80
2022/10/18 03:38:32;;;;;;;;;;;;;;;9.81;94.88;101140.97;4449079;32;35317;-80
2022/10/18 03:41:19;;;;;;;;;;;;;;;9.82;94.76;101147.28;4438891;32;34863;-80
2022/10/18 03:44:06;;;;;;;;;;;;;;;8.99;97.84;101135.13;4449766;32;34072;-80
2022/10/18 03:46:52;;;;;;;;;;;;;;;8.92;99.12;101140.00;4450315;32;35410;-80
2022/10/18 03:49:40;;;;;;;;;;;;;;;9.45;97.83;101150.97;4449652;32;34793;-80
2022/10/18 03:52:27;;;;;;;;;;;;;;;9.67;94.78;101143.38;4449595;32;34757;-80
2022/10/18 03:55:14;;;;;;;;;;;;;;;8.90;99.53;101152.28;4450173;32;35149;-80
2022/10/18 03:58:09;;;;;;;;;;;;;;;9.00;97.11;101153.16;4448486;32;35662;-80
2022/10/18 04:00:56;;;;;;;;;;;;;;;8.68;100.00;101152.37;4442497;32;35239;-80
2022/10/18 04:03:43;;;;;;;;;;;;;;;9.28;97.42;101156.63;4437525;32;35229;-80
2022/10/18 04:06:29;;;;;;;;;;;;;;;8.78;100.00;101156.00;4449715;32;34056;-80
2022/10/18 04:09:23;;;;;;;;;;;;;;;9.23;97.83;101151.94;4442620;32;35265;-80
2022/10/18 04:12:10;;;;;;;;;;;;;;;9.10;99.53;101154.31;4449376;32;36265;-80
2022/10/18 04:14:57;;;;;;;;;;;;;;;9.42;98.27;101148.72;4440132;32;35389;-80
2022/10/18 04:17:43;;;;;;;;;;;;;;;9.12;97.93;101152.16;4449469;32;35068;-80
2022/10/18 04:20:30;;;;;;;;;;;;;;;9.50;96.53;101144.69;4445965;32;34425;-80
2022/10/18 04:23:16;;;;;;;;;;;;;;;9.00;98.53;101144.97;4437991;32;35184;-80
2022/10/18 04:26:02;;;;;;;;;;;;;;;9.38;96.60;101145.72;4447595;32;35192;-80
2022/10/18 04:28:49;;;;;;;;;;;;;;;8.24;100.00;101139.69;4449684;32;34068;-80
2022/10/18 04:31:38;;;;;;;;;;;;;;;9.22;98.01;101147.56;4430882;32;35775;-80
2022/10/18 04:34:25;;;;;;;;;;;;;;;7.84;100.00;101148.28;4448881;32;34823;-80
2022/10/18 04:37:12;;;;;;;;;;;;;;;8.61;100.00;101144.41;4446517;32;34922;-80
2022/10/18 04:40:00;;;;;;;;;;;;;;;9.12;99.71;101138.47;4447800;32;33854;-80
2022/10/18 04:42:48;;;;;;;;;;;;;;;9.32;98.59;101135.84;4446987;32;34896;-80
2022/10/18 04:45:34;;;;;;;;;;;;;;;9.03;98.80;101134.59;4439988;32;36124;-80
2022/10/18 04:48:22;;;;;;;;;;;;;;;9.15;99.59;101132.47;4449128;32;34880;-79
2022/10/18 04:51:11;;;;;;;;;;;;;;;9.10;99.08;101124.22;4439289;32;32658;-79
2022/10/18 04:54:00;;;;;;;;;;;;;;;9.20;99.28;101125.13;4445310;32;34888;-80
2022/10/18 04:56:47;;;;;;;;;;;;;;;9.39;97.03;101111.81;4446628;32;35175;-79
2022/10/18 04:59:34;;;;;;;;;;;;;;;9.01;98.77;101116.53;4448238;32;35047;-80
2022/10/18 05:02:20;;;;;;;;;;;;;;;9.23;98.49;101115.56;4448557;32;35020;-80
2022/10/18 05:05:08;;;;;;;;;;;;;;;8.99;99.32;101117.88;4446802;32;34945;-80
2022/10/18 05:08:00;;;;;;;;;;;;;;;9.06;99.46;101109.47;4444735;32;34862;-81
2022/10/18 05:10:50;;;;;;;;;;;;;;;9.19;98.34;101107.06;4440781;32;34475;-81
2022/10/18 05:13:37;;;;;;;;;;;;;;;8.52;100.00;101102.25;4448817;32;33987;-81
2022/10/18 05:16:27;;;;;;;;;;;;;;;8.75;100.00;101104.63;4439063;32;35724;-81
2022/10/18 05:19:13;;;;;;;;;;;;;;;9.42;97.21;101107.69;4463969;32;35798;-80
2022/10/18 05:22:03;;;;;;;;;;;;;;;9.40;96.09;101107.97;4448797;32;34524;-79
2022/10/18 05:24:52;;;;;;;;;;;;;;;9.29;96.87;101114.50;4427087;32;34996;-81
2022/10/18 05:27:38;;;;;;;;;;;;;;;9.48;95.10;101116.75;4462374;32;34860;-80
2022/10/18 05:30:26;;;;;;;;;;;;;;;9.65;92.96;101117.38;4452681;32;35247;-81
2022/10/18 05:33:16;;;;;;;;;;;;;;;9.59;91.95;101115.69;4462702;32;33408;-82
2022/10/18 05:36:03;;;;;;;;;;;;;;;9.48;92.62;101111.28;4449120;32;32897;-80
2022/10/18 05:38:51;;;;;;;;;;;;;;;9.28;94.45;101115.59;4437373;32;35967;-82
2022/10/18 05:41:37;;;;;;;;;;;;;;;9.07;95.65;101116.56;4449747;32;34684;-82
2022/10/18 05:44:24;;;;;;;;;;;;;;;9.30;95.43;101116.13;4452345;32;35599;-82
2022/10/18 05:47:11;;;;;;;;;;;;;;;8.72;97.69;101118.81;4438227;32;34024;-82
2022/10/18 05:49:58;;;;;;;;;;;;;;;9.16;97.19;101120.44;4452263;32;34839;-82
2022/10/18 05:52:55;;;;;;;;;;;;;;;9.11;97.73;101117.69;4451351;32;35254;-82
2022/10/18 05:55:52;;;;;;;;;;;;;;;8.97;97.89;101115.44;4447806;32;35781;-81
2022/10/18 05:58:40;;;;;;;;;;;;;;;9.48;96.83;101114.87;4426394;32;34118;-81
2022/10/18 06:01:27;;;;;;;;;;;;;;;9.08;98.61;101121.78;4452254;32;34960;-80
2022/10/18 06:04:16;;;;;;;;;;;;;;;8.87;99.96;101120.81;4455372;32;36255;-81
2022/10/18 06:07:07;;;;;;;;;;;;;;;9.51;97.68;101116.25;4448228;32;35623;-81
2022/10/18 06:10:00;;;;;;;;;;;;;;;9.20;98.53;101116.91;4445873;32;33898;-81
2022/10/18 06:12:55;;;;;;;;;;;;;;;9.19;99.89;101122.63;4448430;32;35479;-81
2022/10/18 06:15:42;;;;;;;;;;;;;;;9.45;99.69;101118.13;4455669;32;35280;-82
2022/10/18 06:18:29;;;;;;;;;;;;;;;9.60;99.00;101111.91;4450777;32;34964;-81
2022/10/18 06:21:17;;;;;;;;;;;;;;;9.89;98.07;101115.78;4450097;32;34596;-82
2022/10/18 06:26:58;;;;;;;;;;;;;;;10.22;97.00;101121.06;4449865;32;35203;-81
2022/10/18 06:29:45;;;;;;;;;;;;;;;10.25;97.59;101132.31;4448362;32;34498;-81
2022/10/18 06:32:32;;;;;;;;;;;;;;;10.11;98.81;101125.72;4448928;32;34136;-81
2022/10/18 06:35:19;;;;;;;;;;;;;;;10.24;99.48;101122.41;4443257;32;35758;-79
2022/10/18 06:38:07;;;;;;;;;;;;;;;10.21;99.82;101122.16;4449722;32;35298;-80
2022/10/18 06:41:07;;;;;;;;;;;;;;;10.45;100.00;101126.03;4439465;32;34828;-80
2022/10/18 06:43:56;;;;;;;;;;;;;;;10.47;100.00;101125.75;4442628;32;34477;-80
2022/10/18 06:46:44;;;;;;;;;;;;;;;10.44;100.00;101124.38;4455287;32;35147;-82
2022/10/18 06:49:31;;;;;;;;;;;;;;;10.72;100.00;101131.22;4452297;32;35241;-83
2022/10/18 06:52:21;;;;;;;;;;;;;;;10.91;100.00;101127.94;4438695;32;34380;-81
2022/10/18 06:55:08;;;;;;;;;;;;;;;10.20;100.00;101126.00;4450846;32;34223;-82
2022/10/18 06:57:56;;;;;;;;;;;;;;;10.85;100.00;101137.25;4462229;32;35394;-83
2022/10/18 07:00:44;;;;;;;;;;;;;;;10.48;100.00;101139.19;4450692;32;36131;-82
2022/10/18 07:03:39;;;;;;;;;;;;;;;11.25;100.00;101142.66;4453746;32;35093;-82
2022/10/18 07:06:27;;;;;;;;;;;;;;;11.24;100.00;101140.19;4459701;32;35743;-82
2022/10/18 07:09:14;;;;;;;;;;;;;;;11.51;100.00;101145.31;4451478;32;34916;-82
2022/10/18 07:12:03;;;;;;;;;;;;;;;11.74;100.00;101149.34;4443247;32;34845;-82
2022/10/18 07:14:51;;;;;;;;;;;;;;;11.62;100.00;101146.91;4462510;32;34943;-82
2022/10/18 07:17:44;;;;;;;;;;;;;;;12.17;100.00;101140.62;4442411;32;34019;-82
2022/10/18 07:20:33;;;;;;;;;;;;;;;12.26;100.00;101138.91;4448162;32;35775;-82
2022/10/18 07:23:22;;;;;;;;;;;;;;;12.51;100.00;101135.97;4462066;32;34004;-83
2022/10/18 07:26:17;;;;;;;;;;;;;;;12.50;100.00;101128.81;4449482;32;34878;-82
2022/10/18 07:29:05;;;;;;;;;;;;;;;12.80;99.67;101115.91;4450598;32;34504;-82
2022/10/18 07:31:58;;;;;;;;;;;;;;;12.97;98.08;101118.22;4447017;32;34318;-82
2022/10/18 07:34:52;;;;;;;;;;;;;;;12.90;97.86;101115.00;4464870;32;34852;-83
2022/10/18 07:37:40;;;;;;;;;;;;;;;13.10;95.39;101119.47;4452384;32;35654;-81
2022/10/18 07:40:32;;;;;;;;;;;;;;;13.07;95.85;101114.56;4453742;32;35073;-84
2022/10/18 07:43:20;;;;;;;;;;;;;;;13.61;92.97;101113.38;4453413;32;34972;-85
2022/10/18 07:46:15;;;;;;;;;;;;;;;13.66;91.43;101111.37;4458164;32;36135;-85
2022/10/18 07:49:04;;;;;;;;;;;;;;;13.77;89.85;101117.56;4464995;32;34481;-85
2022/10/18 07:51:51;;;;;;;;;;;;;;;14.36;89.23;101112.56;4430833;32;35153;-84
2022/10/18 07:54:37;;;;;;;;;;;;;;;14.16;88.14;101119.22;4439234;32;35028;-85
2022/10/18 07:57:25;;;;;;;;;;;;;;;14.33;87.66;101121.44;4458891;32;35274;-82
2022/10/18 08:00:12;;;;;;;;;;;;;;;14.60;87.55;101106.97;4448814;32;34972;-82
2022/10/18 08:02:59;;;;;;;;;;;;;;;14.46;85.47;101114.31;4453298;32;34205;-82
2022/10/18 08:05:50;;;;;;;;;;;;;;;14.47;85.20;101102.19;4465048;32;35874;-82
2022/10/18 08:08:37;;;;;;;;;;;;;;;14.98;82.99;101102.13;4438222;32;35240;-80
2022/10/18 08:11:24;;;;;;;;;;;;;;;15.03;77.86;101096.50;4448411;32;34621;-85
2022/10/18 08:14:12;;;;;;;;;;;;;;;14.93;76.90;101095.88;4453442;32;33997;-82
2022/10/18 08:17:08;;;;;;;;;;;;;;;14.78;73.21;101092.28;4429616;32;34831;-82
2022/10/18 08:19:58;;;;;;;;;;;;;;;15.37;73.87;101087.00;4449803;32;35842;-81
2022/10/18 08:23:08;;;;;;;;;;;;;;;15.19;78.18;101091.50;4464749;32;34825;-81
2022/10/18 08:26:09;;;;;;;;;;;;;;;15.46;73.21;101078.81;4439179;32;34031;-79
2022/10/18 08:28:58;;;;;;;;;;;;;;;15.18;69.80;101078.00;4437754;32;34933;-80
2022/10/18 08:32:06;;;;;;;;;;;;;;;15.80;69.86;101072.84;4441736;32;34932;-80
2022/10/18 08:34:53;;;;;;;;;;;;;;;15.46;67.88;101084.34;4440486;32;35389;-80
2022/10/18 08:37:39;;;;;;;;;;;;;;;15.56;66.34;101078.59;4438381;32;34100;-79
2022/10/18 08:40:26;;;;;;;;;;;;;;;16.36;63.46;101063.22;4438770;32;34555;-82
2022/10/18 08:43:18;;;;;;;;;;;;;;;16.45;65.57;101060.50;4438602;32;35712;-80
2022/10/18 08:46:18;;;;;;;;;;;;;;;16.73;61.50;101063.09;4449608;32;34906;-80
2022/10/18 08:49:06;;;;;;;;;;;;;;;16.62;61.46;101057.84;4449709;32;34133;-82
2022/10/18 08:51:54;;;;;;;;;;;;;;;17.06;63.32;101056.09;4447295;32;34935;-82
2022/10/18 08:54:54;;;;;;;;;;;;;;;16.43;61.79;101051.69;4443876;32;35113;-81
2022/10/18 08:57:41;;;;;;;;;;;;;;;16.75;60.79;101050.56;4441959;32;35074;-81
2022/10/18 09:00:33;;;;;;;;;;;;;;;16.79;60.78;101040.53;4449944;32;35080;-81
2022/10/18 09:03:30;;;;;;;;;;;;;;;16.72;58.17;101026.28;4449769;32;34456;-77
2022/10/18 09:06:23;;;;;;;;;;;;;;;17.25;57.51;101028.16;4448175;32;34763;-79
2022/10/18 09:09:24;;;;;;;;;;;;;;;17.13;56.35;101035.44;4461414;32;34745;-80
2022/10/18 09:12:31;;;;;;;;;;;;;;;17.47;53.28;101035.50;4438513;32;34160;-79
2022/10/18 09:15:27;;;;;;;;;;;;;;;16.71;56.02;101034.94;4449506;32;34493;-80
2022/10/18 09:18:18;;;;;;;;;;;;;;;17.70;53.79;101027.06;4449075;32;35536;-80
2022/10/18 09:21:14;;;;;;;;;;;;;;;17.66;53.33;101020.53;4464435;32;34377;-80
2022/10/18 09:24:20;;;;;;;;;;;;;;;17.95;55.14;101011.59;4416366;32;33622;-80
2022/10/18 09:27:16;;;;;;;;;;;;;;;18.06;51.35;101023.19;4463280;32;34460;-81
2022/10/18 09:30:05;;;;;;;;;;;;;;;17.96;49.08;101014.06;4452046;32;36025;-81
2022/10/18 09:33:01;;;;;;;;;;;;;;;18.41;51.50;101010.88;4439797;32;33606;-81
2022/10/18 09:35:52;;;;;;;;;;;;;;;18.54;50.29;101005.47;4464189;32;34057;-80
2022/10/18 09:38:46;;;;;;;;;;;;;;;19.06;44.58;101008.03;4440607;32;34989;-81
2022/10/18 09:41:38;;;;;;;;;;;;;;;18.84;47.71;100998.00;4444878;32;35213;-80
2022/10/18 09:44:27;;;;;;;;;;;;;;;18.69;46.27;100996.56;4435170;32;34740;-81
2022/10/18 09:47:15;;;;;;;;;;;;;;;17.95;48.42;100990.22;4438892;32;35001;-81
2022/10/18 09:50:18;;;;;;;;;;;;;;;19.05;48.07;100995.31;4436775;32;34372;-81
2022/10/18 09:53:07;;;;;;;;;;;;;;;19.09;46.10;100994.28;4446476;32;34845;-82
2022/10/18 09:56:00;;;;;;;;;;;;;;;19.32;45.47;100985.63;4439739;32;34569;-82
2022/10/18 09:58:48;;;;;;;;;;;;;;;20.22;46.34;100982.28;4447421;32;34256;-82
2022/10/18 10:01:34;;;;;;;;;;;;;;;19.97;43.83;100980.56;4438640;32;34916;-78
2022/10/18 10:04:21;;;;;;;;;;;;;;;20.95;45.06;100983.56;4448613;32;35242;-83
2022/10/18 10:07:15;;;;;;;;;;;;;;;21.13;41.48;100975.78;4457385;32;34783;-82
2022/10/18 10:10:12;;;;;;;;;;;;;;;21.86;41.49;100966.44;4438127;32;33583;-83
2022/10/18 10:13:04;;;;;;;;;;;;;;;21.54;40.10;100965.50;4451123;32;35822;-84
2022/10/18 10:15:56;;;;;;;;;;;;;;;22.00;39.83;100955.66;4439402;32;36379;-84
2022/10/18 10:18:43;;;;;;;;;;;;;;;22.85;38.91;100956.28;4449567;32;35471;-83
2022/10/18 10:21:29;;;;;;;;;;;;;;;22.40;38.30;100951.16;4446044;32;34936;-81
2022/10/18 10:24:25;;;;;;;;;;;;;;;22.23;38.90;100944.75;4452140;32;35804;-82
2022/10/18 10:27:17;;;;;;;;;;;;;;;21.70;39.96;100940.47;4438469;32;36197;-82
2022/10/18 10:30:06;;;;;;;;;;;;;;;22.01;38.82;100943.34;4447210;32;35694;-83
2022/10/18 10:32:58;;;;;;;;;;;;;;;22.76;38.56;100935.28;4440646;32;34983;-82
2022/10/18 10:35:57;;;;;;;;;;;;;;;22.70;39.30;100933.94;4446165;32;35004;-83
2022/10/18 10:38:43;;;;;;;;;;;;;;;22.86;37.22;100927.16;4453398;32;35255;-82
2022/10/18 10:41:29;;;;;;;;;;;;;;;22.97;37.91;100926.62;4450603;32;34941;-83
2022/10/18 10:44:26;;;;;;;;;;;;;;;23.00;37.64;100923.12;4443256;32;34198;-83
2022/10/18 10:47:25;;;;;;;;;;;;;;;22.61;37.98;100917.38;4444425;32;34232;-84
2022/10/18 10:50:12;;;;;;;;;;;;;;;21.52;39.26;100907.28;4443439;32;36203;-86
2022/10/18 10:53:01;;;;;;;;;;;;;;;22.25;37.63;100910.06;4452759;32;35066;-85
2022/10/18 10:55:51;;;;;;;;;;;;;;;21.56;41.26;100910.97;4432267;32;35151;-85
2022/10/18 10:58:39;;;;;;;;;;;;;;;21.41;40.80;100900.59;4442008;32;35074;-85
2022/10/18 11:01:35;;;;;;;;;;;;;;;21.22;41.74;100894.81;4450839;32;35207;-85
2022/10/18 11:04:28;;;;;;;;;;;;;;;20.89;41.81;100895.81;4444263;32;35168;-84
2022/10/18 11:07:21;;;;;;;;;;;;;;;21.50;39.05;100881.75;4447633;32;35564;-81
2022/10/18 11:10:13;;;;;;;;;;;;;;;21.61;39.65;100882.03;4450347;32;34575;-82
2022/10/18 11:13:22;;;;;;;;;;;;;;;21.48;40.97;100889.62;4437167;32;35058;-83
2022/10/18 11:16:14;;;;;;;;;;;;;;;21.07;40.97;100880.47;4443778;32;34883;-82
2022/10/18 11:19:02;;;;;;;;;;;;;;;21.39;40.45;100877.03;4444094;32;33585;-82
2022/10/18 11:21:52;;;;;;;;;;;;;;;21.25;40.40;100869.03;4449474;32;35843;-83
2022/10/18 11:24:39;;;;;;;;;;;;;;;20.92;40.75;100869.22;4427597;32;34817;-82
2022/10/18 11:27:27;;;;;;;;;;;;;;;20.65;41.04;100869.59;4451312;32;35490;-82
2022/10/18 11:30:14;;;;;;;;;;;;;;;21.30;39.54;100866.00;4441955;32;34074;-82
2022/10/18 11:33:06;;;;;;;;;;;;;;;21.55;37.18;100861.97;4450600;32;35615;-82
2022/10/18 11:35:57;;;;;;;;;;;;;;;21.42;37.81;100857.59;4457646;32;35229;-82
2022/10/18 11:38:50;;;;;;;;;;;;;;;20.99;39.61;100847.97;4449913;32;35671;-82
2022/10/18 11:41:41;;;;;;;;;;;;;;;21.29;39.91;100850.44;4451026;32;34485;-83
2022/10/18 11:44:34;;;;;;;;;;;;;;;21.08;40.26;100843.06;4444598;32;35781;-83
2022/10/18 11:47:26;;;;;;;;;;;;;;;21.00;41.21;100832.06;4458681;32;34778;-83
2022/10/18 11:50:38;;;;;;;;;;;;;;;20.83;40.80;100831.19;4438500;32;35917;-83
2022/10/18 11:57:19;;;;;;;;;;;;;;;21.65;39.68;100826.34;4411887;32;34528;-81
2022/10/18 12:00:16;;;;;;;;;;;;;;;21.81;39.27;100824.41;4451594;32;36259;-81
2022/10/18 12:03:20;;;;;;;;;;;;;;;21.70;39.26;100814.94;4456447;32;34497;-81
2022/10/18 12:06:13;;;;;;;;;;;;;;;21.52;40.87;100809.69;4461197;32;34091;-81
2022/10/18 12:09:21;;;;;;;;;;;;;;;22.11;36.49;100802.44;4434197;32;33865;-80
2022/10/18 12:12:10;;;;;;;;;;;;;;;21.90;40.31;100799.13;4449637;32;35886;-81
2022/10/18 12:15:12;;;;;;;;;;;;;;;21.86;38.53;100799.03;4434370;32;34912;-80
2022/10/18 12:18:04;;;;;;;;;;;;;;;21.19;39.28;100792.41;4428866;32;34640;-81
2022/10/18 12:20:55;;;;;;;;;;;;;;;21.82;38.58;100781.38;4429840;32;35943;-81
2022/10/18 12:23:54;;;;;;;;;;;;;;;21.55;38.42;100783.88;4432336;32;34794;-81
2022/10/18 12:26:41;;;;;;;;;;;;;;;21.64;38.37;100777.34;4431706;32;34917;-80
2022/10/18 12:32:48;;;;;;;;;;;;;;;22.04;38.78;100777.16;4433651;32;35778;-81
2022/10/18 12:36:06;;;;;;;;;;;;;;;21.70;39.06;100771.12;4433529;32;34828;-80
2022/10/18 12:39:04;;;;;;;;;;;;;;;21.33;40.38;100764.94;4420212;32;34799;-81
2022/10/18 12:41:53;;;;;;;;;;;;;;;22.10;38.98;100755.37;4429297;32;34223;-81
2022/10/18 12:44:40;;;;;;;;;;;;;;;22.42;39.22;100756.94;4429001;32;35740;-81
2022/10/18 12:47:32;;;;;;;;;;;;;;;22.33;37.40;100753.53;4423131;32;35784;-81
2022/10/18 12:50:30;;;;;;;;;;;;;;;22.31;38.59;100752.28;4420257;32;35528;-81
2022/10/18 12:53:25;;;;;;;;;;;;;;;22.15;39.58;100750.31;4428567;32;34340;-81
2022/10/18 12:56:26;;;;;;;;;;;;;;;22.51;38.62;100739.19;4429270;32;34993;-81
2022/10/18 12:59:25;;;;;;;;;;;;;;;22.92;38.10;100734.06;4431249;32;35217;-81
2022/10/18 13:02:30;;;;;;;;;;;;;;;23.88;35.00;100716.31;4432975;32;34854;-81
2022/10/18 13:05:44;;;;;;;;;;;;;;;23.25;36.26;100714.78;4433988;32;33496;-81
2022/10/18 13:08:44;;;;;;;;;;;;;;;23.42;35.39;100707.06;4432452;32;34998;-81
2022/10/18 13:11:35;;;;;;;;;;;;;;;22.76;36.47;100718.16;4425993;32;36199;-80
2022/10/18 13:14:26;;;;;;;;;;;;;;;23.76;34.62;100703.31;4443438;32;35132;-80
2022/10/18 13:17:22;;;;;;;;;;;;;;;23.64;34.42;100716.66;4447321;32;33667;-81
2022/10/18 13:23:36;;;;;;;;;;;;;;;23.78;33.66;100711.31;4446858;32;36147;-81
2022/10/18 13:27:10;;;;;;;;;;;;;;;24.00;33.45;100706.88;4436482;32;34310;-80
2022/10/18 13:30:24;;;;;;;;;;;;;;;23.97;33.78;100704.84;4384876;32;34060;-81
2022/10/18 13:33:28;;;;;;;8.63;3.67;;;;;;;24.90;31.83;100703.31;4382496;32;34900;-80
2022/10/18 13:36:25;;;;;;;9.48;4.80;;;;;;;25.31;32.32;100703.38;4445343;32;33035;-81
2022/10/18 13:39:19;;;;;;;9.07;4.70;;;;;;;26.19;28.68;100708.13;4446037;32;34212;-81
2022/10/18 13:42:15;;;;;;;9.43;5.20;;;;;;;27.11;27.42;100703.34;4436287;32;32180;-80
2022/10/18 13:45:31;;;;;;;9.43;4.70;;;;;;;27.69;27.72;100693.78;4445475;32;34738;-81
2022/10/18 13:48:31;;;;;;;7.80;4.90;;;;;;;28.08;26.78;100680.91;4444129;32;34137;-81
2022/10/18 13:51:56;;;;;;;7.77;4.80;;;;;;;28.52;25.77;100688.84;4436890;32;33929;-83
2022/10/18 13:55:15;;;;;;;8.98;4.90;;;;;;;28.32;25.79;100688.50;4437694;32;33036;-81
2022/10/18 13:58:14;;;;;;;8.67;5.00;;;;;;;28.89;24.93;100679.81;4447847;32;33499;-81
2022/10/18 14:01:29;;;;;;;8.93;5.10;;;;;;;29.48;24.53;100676.22;4443527;32;33134;-82
2022/10/18 14:04:28;;;;;;;8.00;5.10;;;;;;;29.90;25.18;100676.28;4429236;32;33786;-82
2022/10/18 14:07:17;;;;;;;8.88;4.95;;;;;;;29.17;24.98;100668.78;4446261;32;33997;-81
2022/10/18 14:10:24;;;;;;;11.57;5.10;;;;;;;29.51;24.90;100675.38;4443083;32;34402;-80
2022/10/18 14:14:00;;;;;;;7.72;4.60;;;;;;;25.27;29.12;100668.88;4433270;32;34113;-80
2022/10/18 14:16:58;;;;;;;9.75;5.10;;;;;;;27.13;27.92;100667.19;4458203;32;34439;-84
2022/10/18 14:19:53;;;;;;;8.18;4.57;;;;;;;27.36;27.66;100664.03;4454570;32;33134;-82
2022/10/18 14:22:52;;;;;;;11.32;5.40;;;;;;;27.94;26.73;100659.19;4452964;32;33753;-82
2022/10/18 14:25:44;;;;;;;8.90;5.03;;;;;;;27.85;26.50;100650.34;4439414;32;34444;-82
2022/10/18 14:28:38;;;;;;;11.23;5.60;;;;;;;28.89;25.24;100650.81;4440750;32;34476;-82
2022/10/18 14:31:59;;;;;;;10.95;5.62;;;;;;;29.33;24.79;100657.78;4435928;32;33721;-82
2022/10/18 14:34:47;;;;;;;9.18;5.35;;;;;;;29.86;24.43;100650.91;4450188;32;33885;-82
2022/10/18 14:37:35;;;;;;;9.25;5.60;;;;;;;30.25;24.38;100649.69;4439423;32;35100;-82
2022/10/18 14:40:39;;;;;;;10.27;5.87;;;;;;;30.43;23.67;100647.47;4422903;32;32481;-82
2022/10/18 14:46:29;;;;;;;9.95;5.50;;;;;;;30.93;22.88;100626.19;4459032;32;33900;-82
2022/10/18 14:49:34;;;;;;;11.77;5.65;;;;;;;31.08;22.31;100626.78;4436065;32;34075;-82
2022/10/18 14:52:31;;;;;;;13.75;5.95;;;;;;;30.70;22.88;100621.25;4442668;32;32996;-82